Time;durP1;ratioP1;P1;durP2;ratioP2;P2;SDS_P1;SDS_P2;PMS_P1;PMS_P2;Temp;Humidity;BMP_temperature;BMP_pressure;BME280_temperature;BME280_humidity;BME280_pressure;Samples;Min_cycle;Max_cycle;Signal;HPM_P1;HPM_P2
2024/01/25 00:01:14;;;;;;;4.17;1.30;;;;;;;10.04;100.00;97350.78;4980310;28;20627;-68
2024/01/25 00:03:40;;;;;;;3.93;1.03;;;;;;;10.04;100.00;97361.31;4978969;28;20215;-68
2024/01/25 00:06:08;;;;;;;3.87;0.70;;;;;;;10.07;100.00;97361.00;4979464;28;20640;-68
2024/01/25 00:08:35;;;;;;;1.60;0.93;;;;;;;10.00;100.00;97365.19;4977992;28;20238;-68
2024/01/25 00:11:02;;;;;;;8.53;1.67;;;;;;;10.03;100.00;97358.78;4979504;28;20212;-68
2024/01/25 00:13:29;;;;;;;4.33;1.00;;;;;;;10.23;100.00;97355.09;4977883;28;20203;-68
2024/01/25 00:15:56;;;;;;;11.53;1.27;;;;;;;10.14;100.00;97364.69;4979144;28;20223;-68
2024/01/25 00:18:22;;;;;;;2.33;1.00;;;;;;;10.22;100.00;97371.88;4977634;28;20488;-68
2024/01/25 00:20:49;;;;;;;4.90;0.90;;;;;;;10.20;100.00;97376.47;4977111;28;20681;-68
2024/01/25 00:23:17;;;;;;;0.57;0.57;;;;;;;10.00;100.00;97380.16;4980242;28;20653;-68
2024/01/25 00:25:43;;;;;;;9.60;1.40;;;;;;;10.25;100.00;97372.41;4977081;28;20211;-68
2024/01/25 00:28:10;;;;;;;3.87;1.00;;;;;;;10.02;100.00;97379.03;4977333;28;20779;-68
2024/01/25 00:30:36;;;;;;;8.93;0.90;;;;;;;9.72;100.00;97368.75;4978547;28;20329;-68
2024/01/25 00:33:03;;;;;;;8.90;1.20;;;;;;;9.88;100.00;97370.78;4977106;28;20211;-68
2024/01/25 00:35:30;;;;;;;4.60;1.83;;;;;;;10.09;100.00;97361.66;4978094;28;20227;-68
2024/01/25 00:37:57;;;;;;;2.83;1.23;;;;;;;10.08;100.00;97370.56;4978009;28;20230;-68
2024/01/25 00:40:26;;;;;;;9.17;1.13;;;;;;;10.18;100.00;97355.50;4977323;28;20204;-68
2024/01/25 00:42:53;;;;;;;5.73;0.90;;;;;;;9.87;100.00;97346.22;4978479;28;20211;-68
2024/01/25 00:45:20;;;;;;;7.10;1.43;;;;;;;9.88;100.00;97333.91;4978484;28;20597;-68
2024/01/25 00:47:47;;;;;;;9.40;1.13;;;;;;;9.84;100.00;97333.38;4975763;28;20227;-68
2024/01/25 00:50:17;;;;;;;5.73;0.90;;;;;;;9.82;100.00;97330.03;4977078;28;20347;-68
2024/01/25 00:52:44;;;;;;;6.07;1.10;;;;;;;9.67;100.00;97333.31;4978780;28;20218;-68
2024/01/25 00:55:11;;;;;;;5.73;1.00;;;;;;;9.93;100.00;97339.56;4977577;28;20231;-68
2024/01/25 00:57:40;;;;;;;6.73;1.30;;;;;;;10.02;100.00;97342.16;4977538;28;20234;-67
2024/01/25 01:00:08;;;;;;;4.80;1.30;;;;;;;9.86;100.00;97351.66;4978734;28;20215;-68
2024/01/25 01:02:37;;;;;;;4.97;0.73;;;;;;;9.99;100.00;97353.00;4977055;28;20211;-68
2024/01/25 01:05:04;;;;;;;5.13;1.80;;;;;;;9.86;100.00;97341.97;4979209;28;20713;-68
2024/01/25 01:07:31;;;;;;;4.77;1.10;;;;;;;9.88;100.00;97344.44;4976648;28;20575;-68
2024/01/25 01:09:57;;;;;;;8.27;0.90;;;;;;;9.56;100.00;97340.53;4976565;28;20215;-68
2024/01/25 01:12:24;;;;;;;3.23;0.60;;;;;;;9.67;100.00;97335.13;4979347;28;20667;-68
2024/01/25 01:14:52;;;;;;;8.40;1.73;;;;;;;9.90;100.00;97347.75;4977064;28;20227;-68
2024/01/25 01:17:18;;;;;;;12.17;2.23;;;;;;;9.85;100.00;97349.97;4975930;28;20438;-68
2024/01/25 01:19:45;;;;;;;6.57;1.53;;;;;;;9.75;100.00;97346.59;4976054;28;20586;-68
2024/01/25 01:22:11;;;;;;;2.80;0.90;;;;;;;9.73;100.00;97357.22;4976614;28;20207;-68
2024/01/25 01:24:38;;;;;;;8.77;1.43;;;;;;;9.82;100.00;97356.38;4977785;28;20976;-67
2024/01/25 01:27:04;;;;;;;4.33;1.27;;;;;;;9.78;100.00;97347.09;4977050;28;20211;-67
2024/01/25 01:29:31;;;;;;;5.83;1.00;;;;;;;9.99;100.00;97353.00;4978472;28;20308;-68
2024/01/25 01:31:59;;;;;;;2.83;0.70;;;;;;;10.12;100.00;97350.84;4977559;28;20235;-67
2024/01/25 01:34:25;;;;;;;3.80;1.50;;;;;;;9.97;100.00;97343.59;4977460;28;20416;-67
2024/01/25 01:36:52;;;;;;;4.50;1.30;;;;;;;9.97;100.00;97349.69;4977948;28;20697;-67
2024/01/25 01:39:18;;;;;;;5.53;1.37;;;;;;;9.98;100.00;97343.44;4976078;28;20227;-67
2024/01/25 01:41:48;;;;;;;6.87;1.57;;;;;;;10.38;100.00;97343.88;4976984;28;20214;-67
2024/01/25 01:44:14;;;;;;;10.97;1.47;;;;;;;9.93;100.00;97348.28;4978372;28;20950;-67
2024/01/25 01:46:41;;;;;;;4.63;1.40;;;;;;;9.95;100.00;97346.34;4976909;28;20210;-67
2024/01/25 01:49:12;;;;;;;7.90;1.93;;;;;;;9.91;100.00;97337.06;4975531;28;20227;-67
2024/01/25 01:51:40;;;;;;;7.40;1.97;;;;;;;9.94;100.00;97342.06;4978093;28;20218;-67
2024/01/25 01:54:08;;;;;;;4.40;1.10;;;;;;;10.09;100.00;97332.69;4978411;28;20218;-67
2024/01/25 01:56:35;;;;;;;10.27;1.50;;;;;;;10.00;100.00;97338.84;4976888;28;20722;-68
2024/01/25 01:59:03;;;;;;;5.90;0.80;;;;;;;9.82;100.00;97337.94;4976984;28;20243;-67
2024/01/25 02:01:30;;;;;;;3.10;1.17;;;;;;;9.92;100.00;97335.28;4978547;28;20211;-68
2024/01/25 02:03:56;;;;;;;5.30;1.47;;;;;;;9.82;100.00;97330.03;4977818;28;20614;-68
2024/01/25 02:06:24;;;;;;;8.63;1.97;;;;;;;10.05;100.00;97320.00;4978011;28;20214;-68
2024/01/25 02:08:52;;;;;;;8.43;1.43;;;;;;;9.83;100.00;97323.00;4976740;28;20227;-68
2024/01/25 02:11:19;;;;;;;2.43;0.77;;;;;;;9.83;100.00;97334.34;4979212;28;20652;-67
2024/01/25 02:13:47;;;;;;;4.30;1.30;;;;;;;9.79;100.00;97325.06;4976271;28;20940;-67
2024/01/25 02:16:14;;;;;;;1.77;0.87;;;;;;;9.78;100.00;97331.31;4978970;28;20227;-68
2024/01/25 02:18:41;;;;;;;15.03;1.80;;;;;;;9.94;100.00;97343.84;4974306;28;20612;-67
2024/01/25 02:21:08;;;;;;;4.47;1.13;;;;;;;9.94;100.00;97343.84;4976745;28;20207;-67
2024/01/25 02:23:36;;;;;;;2.53;1.20;;;;;;;9.97;100.00;97344.41;4978106;28;20662;-67
2024/01/25 02:26:02;;;;;;;3.70;1.17;;;;;;;9.74;100.00;97355.44;4977055;28;20214;-67
2024/01/25 02:28:29;;;;;;;3.07;1.17;;;;;;;9.65;100.00;97339.69;4975733;28;20219;-67
2024/01/25 02:30:55;;;;;;;1.60;0.70;;;;;;;9.67;100.00;97356.16;4978084;28;20211;-67
2024/01/25 02:33:22;;;;;;;5.47;1.00;;;;;;;9.64;100.00;97335.41;4977512;28;20207;-67
2024/01/25 02:35:48;;;;;;;7.10;1.67;;;;;;;9.67;100.00;97335.13;4976332;28;20227;-67
2024/01/25 02:38:15;;;;;;;9.83;0.70;;;;;;;9.65;100.00;97331.78;4978317;28;20227;-67
2024/01/25 02:40:42;;;;;;;8.73;1.33;;;;;;;9.90;100.00;97337.22;4977376;28;20230;-67
2024/01/25 02:43:09;;;;;;;3.20;0.73;;;;;;;9.62;100.00;97326.81;4976519;28;20218;-67
2024/01/25 02:45:35;;;;;;;2.53;0.63;;;;;;;9.68;100.00;97323.63;4977468;28;20214;-68
2024/01/25 02:48:03;;;;;;;8.73;1.97;;;;;;;9.80;100.00;97307.47;4976015;28;20223;-67
2024/01/25 02:50:30;;;;;;;8.20;1.00;;;;;;;9.75;100.00;97302.66;4974823;28;20705;-67
2024/01/25 02:52:56;;;;;;;2.83;1.17;;;;;;;9.64;100.00;97298.56;4976905;28;20207;-67
2024/01/25 02:55:23;;;;;;;2.13;1.57;;;;;;;9.67;100.00;97304.34;4977805;28;20238;-67
2024/01/25 02:57:51;;;;;;;3.07;1.23;;;;;;;9.87;100.00;97298.03;4975109;28;20235;-67
2024/01/25 03:00:19;;;;;;;6.83;1.40;;;;;;;9.63;100.00;97291.66;4978450;28;20305;-67
2024/01/25 03:02:45;;;;;;;7.77;1.40;;;;;;;9.52;100.00;97283.94;4975819;28;20224;-68
2024/01/25 03:05:12;;;;;;;7.73;1.23;;;;;;;9.64;100.00;97280.16;4977315;28;20203;-67
2024/01/25 03:07:38;;;;;;;5.03;0.80;;;;;;;9.65;100.00;97279.16;4975793;28;20235;-68
2024/01/25 03:10:06;;;;;;;1.87;1.13;;;;;;;9.64;100.00;97277.53;4975756;28;20207;-67
2024/01/25 03:12:32;;;;;;;3.00;1.07;;;;;;;9.52;100.00;97289.19;4977305;28;20530;-67
2024/01/25 03:15:00;;;;;;;3.30;0.77;;;;;;;9.75;100.00;97292.13;4976645;28;20211;-68
2024/01/25 03:17:26;;;;;;;1.23;1.13;;;;;;;9.52;100.00;97294.44;4974703;28;20497;-67
2024/01/25 03:19:53;;;;;;;3.80;0.70;;;;;;;9.61;100.00;97285.69;4974163;28;20214;-68
2024/01/25 03:22:20;;;;;;;1.97;0.60;;;;;;;9.64;100.00;97285.41;4976688;28;21137;-67
2024/01/25 03:24:46;;;;;;;6.20;1.53;;;;;;;9.67;100.00;97288.56;4975120;28;20210;-68
2024/01/25 03:27:14;;;;;;;2.53;0.90;;;;;;;9.72;100.00;97291.59;4976209;28;20292;-67
2024/01/25 03:29:42;;;;;;;11.97;2.00;;;;;;;9.75;100.00;97294.75;4976339;28;20799;-67
2024/01/25 03:32:10;;;;;;;4.07;0.70;;;;;;;9.60;100.00;97303.28;4975233;28;20206;-67
2024/01/25 03:34:36;;;;;;;10.80;1.30;;;;;;;9.26;100.00;97317.13;4975741;28;20833;-67
2024/01/25 03:37:03;;;;;;;7.20;0.90;;;;;;;9.41;100.00;97318.31;4975824;28;20231;-67
2024/01/25 03:39:29;;;;;;;5.20;1.53;;;;;;;9.53;100.00;97322.44;4975465;28;20489;-68
2024/01/25 03:42:02;;;;;;;4.33;1.10;;;;;;;9.63;100.00;97317.97;4976252;28;20868;-67
2024/01/25 03:44:28;;;;;;;5.27;1.13;;;;;;;9.48;100.00;97332.56;4973595;28;20216;-67
2024/01/25 03:46:55;;;;;;;6.70;1.47;;;;;;;9.37;100.00;97332.75;4974456;28;20199;-67
2024/01/25 03:49:23;;;;;;;2.90;0.87;;;;;;;9.49;100.00;97337.66;4973904;28;20227;-67
2024/01/25 03:51:50;;;;;;;1.73;1.07;;;;;;;9.20;100.00;97351.88;4975063;28;20965;-67
2024/01/25 03:54:17;;;;;;;11.17;1.23;;;;;;;9.32;100.00;97341.06;4976044;28;20203;-67
2024/01/25 03:56:43;;;;;;;1.47;0.90;;;;;;;9.29;100.00;97340.50;4974775;28;20220;-67
2024/01/25 03:59:12;;;;;;;3.63;1.47;;;;;;;9.18;100.00;97344.13;4974211;28;20548;-67
2024/01/25 04:01:43;;;;;;;2.50;1.20;;;;;;;9.16;100.00;97345.25;4976342;28;20211;-67
2024/01/25 04:04:10;;;;;;;4.67;0.90;;;;;;;8.89;100.00;97342.50;4978505;28;20676;-67
2024/01/25 04:06:38;;;;;;;2.53;1.00;;;;;;;8.94;100.00;97335.03;4979533;28;20662;-67
2024/01/25 04:09:05;;;;;;;6.33;0.80;;;;;;;8.97;100.00;97334.75;4978879;28;20753;-67
2024/01/25 04:11:32;;;;;;;2.97;0.70;;;;;;;8.71;100.00;97333.69;4978627;28;20581;-67
2024/01/25 04:13:58;;;;;;;7.70;1.03;;;;;;;8.91;100.00;97335.34;4979882;28;20203;-67
2024/01/25 04:16:25;;;;;;;2.07;1.20;;;;;;;8.91;100.00;97339.75;4978407;28;20230;-67
2024/01/25 04:18:51;;;;;;;3.27;1.10;;;;;;;8.84;100.00;97339.47;4976987;28;20223;-67
2024/01/25 04:21:18;;;;;;;2.23;1.33;;;;;;;8.84;100.00;97343.91;4980006;28;20712;-68
2024/01/25 04:23:45;;;;;;;6.83;0.90;;;;;;;8.97;100.00;97333.94;4978595;28;20203;-67
2024/01/25 04:26:12;;;;;;;4.80;1.30;;;;;;;8.75;100.00;97334.22;4978356;28;20795;-67
2024/01/25 04:28:38;;;;;;;6.97;1.00;;;;;;;8.95;100.00;97331.44;4976775;28;20237;-67
2024/01/25 04:31:05;;;;;;;9.10;1.70;;;;;;;8.88;100.00;97329.50;4978548;28;20238;-67
2024/01/25 04:33:31;;;;;;;4.80;0.90;;;;;;;8.73;100.00;97326.50;4978597;28;20237;-68
2024/01/25 04:35:58;;;;;;;8.00;1.40;;;;;;;8.90;100.00;97335.47;4979369;28;20648;-67
2024/01/25 04:38:24;;;;;;;6.33;0.90;;;;;;;8.87;100.00;97344.47;4978982;28;20598;-67
2024/01/25 04:40:52;;;;;;;4.87;1.13;;;;;;;9.17;100.00;97341.63;4977211;28;20205;-67
2024/01/25 04:43:19;;;;;;;5.20;0.80;;;;;;;9.04;100.00;97338.50;4980248;28;20200;-67
2024/01/25 04:45:45;;;;;;;4.37;1.47;;;;;;;9.07;100.00;97348.72;4977948;28;20210;-67
2024/01/25 04:48:12;;;;;;;7.80;1.47;;;;;;;8.97;100.00;97345.25;4976240;28;20227;-67
2024/01/25 04:50:39;;;;;;;2.97;1.13;;;;;;;8.84;100.00;97349.97;4977432;28;20472;-67
2024/01/25 04:53:05;;;;;;;3.90;0.97;;;;;;;8.76;100.00;97357.75;4978231;28;20631;-67
2024/01/25 04:55:32;;;;;;;13.53;2.00;;;;;;;8.91;100.00;97360.75;4981050;28;20207;-67
2024/01/25 04:58:00;;;;;;;0.73;0.70;;;;;;;8.95;100.00;97363.00;4976806;28;20235;-67
2024/01/25 05:00:26;;;;;;;6.40;0.80;;;;;;;8.89;100.00;97371.44;4979859;28;20233;-67
2024/01/25 05:02:53;;;;;;;4.03;1.13;;;;;;;8.82;100.00;97369.50;4978536;28;20239;-67
2024/01/25 05:05:19;;;;;;;7.77;0.80;;;;;;;8.82;100.00;97364.22;4977886;28;20643;-67
2024/01/25 05:07:46;;;;;;;7.63;1.03;;;;;;;9.02;100.00;97385.09;4978773;28;20220;-68
2024/01/25 05:10:12;;;;;;;9.33;2.20;;;;;;;8.98;100.00;97383.72;4978542;28;20495;-68
2024/01/25 05:12:39;;;;;;;6.43;1.47;;;;;;;8.94;100.00;97381.53;4977826;28;20204;-67
2024/01/25 05:15:08;;;;;;;6.70;1.20;;;;;;;9.15;100.00;97385.66;4979617;28;20203;-68
2024/01/25 05:17:34;;;;;;;1.87;0.60;;;;;;;9.07;100.00;97401.31;4977212;28;20470;-67
2024/01/25 05:20:02;;;;;;;10.50;1.60;;;;;;;9.11;100.00;97402.69;4976189;28;20290;-67
2024/01/25 05:22:29;;;;;;;8.13;1.60;;;;;;;9.17;100.00;97404.75;4977089;28;20210;-67
2024/01/25 05:24:55;;;;;;;4.70;1.23;;;;;;;9.25;100.00;97416.25;4978462;28;20218;-67
2024/01/25 05:27:23;;;;;;;4.20;1.07;;;;;;;9.30;100.00;97410.53;4978528;28;20202;-67
2024/01/25 05:29:49;;;;;;;5.27;1.10;;;;;;;9.18;100.00;97419.56;4977733;28;20276;-67
2024/01/25 05:32:17;;;;;;;6.37;1.43;;;;;;;9.34;100.00;97423.28;4978110;28;20234;-67
2024/01/25 05:34:44;;;;;;;8.57;0.97;;;;;;;9.25;100.00;97426.78;4977308;28;20200;-67
2024/01/25 05:37:10;;;;;;;6.80;1.27;;;;;;;9.21;100.00;97424.53;4977497;28;20223;-67
2024/01/25 05:39:37;;;;;;;6.43;2.13;;;;;;;9.26;100.00;97425.78;4978488;28;20207;-68
2024/01/25 05:42:04;;;;;;;1.43;0.90;;;;;;;9.21;100.00;97421.91;4977320;28;20381;-67
2024/01/25 05:44:31;;;;;;;3.77;1.50;;;;;;;9.23;100.00;97431.31;4979925;28;20211;-67
2024/01/25 05:46:57;;;;;;;1.87;1.20;;;;;;;9.27;100.00;97434.50;4976806;28;20207;-68
2024/01/25 05:49:25;;;;;;;9.63;2.00;;;;;;;9.31;100.00;97438.53;4975272;28;20233;-68
2024/01/25 05:51:52;;;;;;;9.93;1.30;;;;;;;9.09;100.00;97444.91;4977820;28;20205;-67
2024/01/25 05:54:18;;;;;;;6.53;1.20;;;;;;;8.88;100.00;97437.28;4977351;28;20196;-68
2024/01/25 05:56:45;;;;;;;8.87;1.33;;;;;;;8.87;100.00;97439.09;4977561;28;20223;-68
2024/01/25 05:59:11;;;;;;;3.63;0.90;;;;;;;8.82;100.00;97448.34;4977297;28;20241;-68
2024/01/25 06:01:38;;;;;;;1.93;1.23;;;;;;;8.78;100.00;97449.59;4977207;28;20326;-67
2024/01/25 06:04:04;;;;;;;6.13;1.00;;;;;;;8.82;100.00;97450.97;4978111;28;20234;-68
2024/01/25 06:06:32;;;;;;;2.50;0.90;;;;;;;8.85;100.00;97446.28;4977603;28;20203;-68
2024/01/25 06:08:59;;;;;;;16.03;1.57;;;;;;;8.71;100.00;97449.31;4976312;28;20231;-67
2024/01/25 06:11:25;;;;;;;5.67;1.23;;;;;;;8.73;100.00;97449.16;4978514;28;20701;-68
2024/01/25 06:13:52;;;;;;;4.93;1.00;;;;;;;8.55;100.00;97451.63;4977714;28;20206;-68
2024/01/25 06:16:18;;;;;;;10.20;1.90;;;;;;;8.63;100.00;97458.81;4975871;28;20208;-67
2024/01/25 06:18:45;;;;;;;7.80;1.37;;;;;;;8.68;100.00;97460.09;4975541;28;20233;-68
2024/01/25 06:21:11;;;;;;;3.67;1.10;;;;;;;8.65;100.00;97468.22;4975959;28;20673;-67
2024/01/25 06:23:39;;;;;;;4.10;1.10;;;;;;;8.88;100.00;97472.28;4990230;28;20257;-67
2024/01/25 06:26:06;;;;;;;9.37;1.60;;;;;;;8.76;100.00;97467.31;4977174;28;20200;-68
2024/01/25 06:28:32;;;;;;;5.33;1.40;;;;;;;8.71;100.00;97478.22;4977478;28;20721;-68
2024/01/25 06:31:01;;;;;;;3.53;1.17;;;;;;;8.95;100.00;97483.06;4975941;28;20213;-68
2024/01/25 06:33:28;;;;;;;8.77;0.80;;;;;;;8.66;100.00;97496.16;4978488;28;20206;-68
2024/01/25 06:35:54;;;;;;;9.90;1.40;;;;;;;8.63;100.00;97487.72;4978031;28;20669;-68
2024/01/25 06:38:21;;;;;;;8.50;1.53;;;;;;;8.62;100.00;97489.53;4977763;28;20618;-68
2024/01/25 06:40:49;;;;;;;8.87;1.60;;;;;;;8.56;100.00;97487.44;4976576;28;20203;-67
2024/01/25 06:43:15;;;;;;;3.60;1.43;;;;;;;8.48;100.00;97493.50;4978154;28;20207;-68
2024/01/25 06:45:42;;;;;;;4.33;0.93;;;;;;;8.52;100.00;97503.59;4976705;28;20204;-68
2024/01/25 06:48:09;;;;;;;4.43;1.10;;;;;;;8.30;100.00;97495.09;4975660;28;20215;-68
2024/01/25 06:50:36;;;;;;;10.97;4.23;;;;;;;8.39;100.00;97491.66;4975592;28;20211;-68
2024/01/25 06:53:02;;;;;;;7.53;1.97;;;;;;;8.40;100.00;97488.94;4977647;28;20290;-68
2024/01/25 06:55:29;;;;;;;5.93;1.53;;;;;;;8.41;100.00;97490.56;4976746;28;20208;-68
2024/01/25 06:57:57;;;;;;;6.97;2.97;;;;;;;8.66;100.00;97475.16;4975514;28;20237;-68
2024/01/25 07:00:24;;;;;;;11.37;4.40;;;;;;;8.61;100.00;97477.34;4977158;28;20199;-68
2024/01/25 07:02:50;;;;;;;6.13;2.10;;;;;;;8.56;100.00;97482.16;4975776;28;20673;-68
2024/01/25 07:05:17;;;;;;;6.10;1.23;;;;;;;8.20;100.00;97491.63;4976106;28;20205;-68
2024/01/25 07:07:43;;;;;;;11.03;4.00;;;;;;;8.45;100.00;97491.13;4975722;28;20224;-68
2024/01/25 07:10:10;;;;;;;10.37;1.67;;;;;;;8.36;100.00;97497.19;4977042;28;20692;-68
2024/01/25 07:12:36;;;;;;;7.33;3.33;;;;;;;8.57;100.00;97494.34;4976340;28;20203;-68
2024/01/25 07:15:05;;;;;;;14.43;3.50;;;;;;;8.62;100.00;97504.47;4977775;28;20673;-68
2024/01/25 07:17:31;;;;;;;11.13;3.40;;;;;;;8.47;100.00;97507.63;4977113;28;20246;-68
2024/01/25 07:19:58;;;;;;;9.60;2.90;;;;;;;8.67;100.00;97510.97;4975028;28;20767;-68
2024/01/25 07:22:24;;;;;;;4.17;2.20;;;;;;;8.54;100.00;97520.91;4976785;28;20195;-68
2024/01/25 07:24:51;;;;;;;11.07;1.70;;;;;;;8.33;100.00;97515.84;4975837;28;20214;-68
2024/01/25 07:27:17;;;;;;;8.43;2.03;;;;;;;8.44;100.00;97515.72;4975746;28;20195;-68
2024/01/25 07:29:45;;;;;;;7.93;2.20;;;;;;;8.30;100.00;97516.09;4976410;28;20200;-68
2024/01/25 07:32:13;;;;;;;14.30;1.70;;;;;;;8.57;100.00;97519.81;4977217;28;20260;-68
2024/01/25 07:34:40;;;;;;;11.83;2.03;;;;;;;8.26;100.00;97514.69;4975109;28;20689;-68
2024/01/25 07:37:06;;;;;;;8.57;2.10;;;;;;;8.47;100.00;97513.69;4979530;28;20238;-68
2024/01/25 07:39:33;;;;;;;12.03;2.03;;;;;;;8.68;100.00;97524.94;4979979;28;20238;-68
2024/01/25 07:41:59;;;;;;;14.53;2.33;;;;;;;8.45;100.00;97526.09;4979178;28;20712;-68
2024/01/25 07:44:26;;;;;;;5.53;1.70;;;;;;;8.78;100.00;97529.28;4979420;28;20204;-68
2024/01/25 07:46:53;;;;;;;5.90;1.53;;;;;;;8.94;100.00;97534.81;4975419;28;21001;-68
2024/01/25 07:49:21;;;;;;;10.20;1.23;;;;;;;9.08;100.00;97539.69;4976112;28;20227;-68
2024/01/25 07:51:47;;;;;;;7.83;1.70;;;;;;;9.01;100.00;97543.00;4978870;28;20204;-68
2024/01/25 07:54:15;;;;;;;2.77;1.00;;;;;;;9.13;100.00;97548.00;4979083;28;20199;-68
2024/01/25 07:56:41;;;;;;;11.60;2.00;;;;;;;9.10;100.00;97553.56;4977137;28;20292;-68
2024/01/25 07:59:08;;;;;;;2.80;1.10;;;;;;;8.91;100.00;97571.06;4978576;28;20249;-68
2024/01/25 08:01:34;;;;;;;3.83;1.77;;;;;;;9.05;100.00;97565.41;4979474;28;20218;-68
2024/01/25 08:04:03;;;;;;;11.23;1.27;;;;;;;9.17;100.00;97567.81;4978390;28;21218;-68
2024/01/25 08:06:30;;;;;;;5.47;1.43;;;;;;;9.43;100.00;97566.28;4978468;28;20276;-68
2024/01/25 08:08:57;;;;;;;3.53;1.47;;;;;;;9.29;100.00;97571.97;4978902;28;20233;-68
2024/01/25 08:11:24;;;;;;;3.87;1.80;;;;;;;9.24;100.00;97569.75;4977475;28;20218;-68
2024/01/25 08:13:50;;;;;;;12.40;2.63;;;;;;;9.15;100.00;97567.09;4978469;28;20578;-68
2024/01/25 08:16:19;;;;;;;4.37;1.93;;;;;;;9.26;100.00;97557.28;4980034;28;20204;-68
2024/01/25 08:18:45;;;;;;;11.23;2.07;;;;;;;9.14;100.00;97552.31;4976091;28;20344;-68
2024/01/25 08:21:12;;;;;;;3.30;1.60;;;;;;;9.31;100.00;97549.81;4978984;28;20200;-68
2024/01/25 08:23:40;;;;;;;8.40;1.80;;;;;;;9.45;100.00;97564.38;4978231;28;20668;-68
2024/01/25 08:26:09;;;;;;;6.30;1.73;;;;;;;9.41;100.00;97570.88;4978328;28;20203;-68
2024/01/25 08:28:35;;;;;;;3.73;1.83;;;;;;;9.52;100.00;97574.22;4975923;28;20223;-68
2024/01/25 08:31:02;;;;;;;3.47;1.60;;;;;;;9.51;100.00;97579.59;4977591;28;20207;-68
2024/01/25 08:33:29;;;;;;;6.33;1.60;;;;;;;9.53;100.00;97569.75;4976916;28;20203;-68
2024/01/25 08:35:58;;;;;;;5.07;1.43;;;;;;;9.54;100.00;97560.91;4977642;28;20200;-68
2024/01/25 08:38:25;;;;;;;19.10;4.67;;;;;;;9.43;100.00;97555.78;4976956;28;20309;-68
2024/01/25 08:40:53;;;;;;;14.33;4.83;;;;;;;9.50;100.00;97551.63;4976828;28;20688;-68
2024/01/25 08:43:19;;;;;;;8.20;2.73;;;;;;;9.40;100.00;97548.16;4977532;28;20226;-68
2024/01/25 08:45:46;;;;;;;8.13;2.80;;;;;;;9.51;100.00;97553.28;4978623;28;20705;-68
2024/01/25 08:48:13;;;;;;;7.90;2.77;;;;;;;9.41;100.00;97558.53;4975630;28;20212;-68
2024/01/25 08:50:40;;;;;;;4.70;2.00;;;;;;;9.47;100.00;97554.53;4976052;28;21059;-68
2024/01/25 08:53:06;;;;;;;7.80;1.90;;;;;;;9.51;100.00;97566.44;4977240;28;20210;-68
2024/01/25 08:55:33;;;;;;;4.57;1.50;;;;;;;9.55;100.00;97570.47;4977795;28;20207;-68
2024/01/25 08:58:01;;;;;;;7.10;1.40;;;;;;;9.51;100.00;97566.44;4977245;28;20325;-68
2024/01/25 09:00:27;;;;;;;6.47;1.57;;;;;;;9.61;100.00;97572.53;4978760;28;20203;-68
2024/01/25 09:02:54;;;;;;;3.90;1.00;;;;;;;9.71;100.00;97575.03;4976757;28;20203;-68
2024/01/25 09:05:21;;;;;;;12.07;1.53;;;;;;;9.68;100.00;97580.56;4978393;28;20226;-68
2024/01/25 09:07:50;;;;;;;7.43;2.33;;;;;;;9.84;100.00;97586.09;4976134;28;20590;-68
2024/01/25 09:10:17;;;;;;;6.70;1.93;;;;;;;9.83;100.00;97594.97;4976996;28;20207;-68
2024/01/25 09:12:43;;;;;;;3.57;1.30;;;;;;;9.98;100.00;97595.38;4976704;28;20767;-68
2024/01/25 09:15:11;;;;;;;3.00;1.17;;;;;;;10.29;100.00;97591.63;4977188;28;20680;-68
2024/01/25 09:17:38;;;;;;;13.43;2.60;;;;;;;10.05;100.00;97594.69;4976761;28;20231;-68
2024/01/25 09:20:06;;;;;;;3.20;1.30;;;;;;;10.25;100.00;97598.97;4974831;28;20203;-68
2024/01/25 09:22:32;;;;;;;8.40;2.33;;;;;;;10.01;100.00;97589.88;4978652;28;20208;-68
2024/01/25 09:24:59;;;;;;;7.07;1.83;;;;;;;10.02;100.00;97589.72;4975547;28;20579;-68
2024/01/25 09:27:25;;;;;;;8.60;1.47;;;;;;;9.92;100.00;97593.31;4976779;28;20199;-68
2024/01/25 09:29:52;;;;;;;5.47;1.43;;;;;;;10.17;100.00;97595.38;4977084;28;20207;-68
2024/01/25 09:32:20;;;;;;;2.53;1.30;;;;;;;10.08;100.00;97604.97;4976527;28;20204;-68
2024/01/25 09:34:47;;;;;;;4.40;1.17;;;;;;;9.91;100.00;97607.44;4976818;28;20207;-68
2024/01/25 09:37:14;;;;;;;8.87;1.83;;;;;;;10.01;100.00;97609.13;4975839;28;20667;-68
2024/01/25 09:39:41;;;;;;;6.90;1.50;;;;;;;10.13;100.00;97612.44;4975522;28;20199;-68
2024/01/25 09:42:08;;;;;;;5.43;1.30;;;;;;;10.44;100.00;97609.47;4976111;28;20581;-68
2024/01/25 09:44:35;;;;;;;8.73;1.53;;;;;;;10.43;100.00;97618.34;4978560;28;20203;-68
2024/01/25 09:47:07;;;;;;;3.60;1.33;;;;;;;10.58;100.00;97628.28;4974537;28;20206;-68
2024/01/25 09:49:35;;;;;;;7.27;1.03;;;;;;;10.82;100.00;97633.03;4975549;28;20230;-68
2024/01/25 09:52:03;;;;;;;7.93;1.20;;;;;;;10.69;100.00;97645.72;4975981;28;20199;-68
2024/01/25 09:54:31;;;;;;;6.80;1.37;;;;;;;10.53;100.00;97651.59;4975098;28;20211;-68
2024/01/25 09:56:57;;;;;;;5.47;1.10;;;;;;;10.40;100.00;97648.44;4974220;28;20203;-68
2024/01/25 09:59:24;;;;;;;4.70;1.20;;;;;;;10.34;100.00;97640.25;4974048;28;20228;-68
2024/01/25 10:01:50;;;;;;;18.73;2.60;;;;;;;10.54;100.00;97634.81;4976621;28;20241;-68
2024/01/25 10:04:19;;;;;;;3.80;0.93;;;;;;;10.32;100.00;97641.38;4974558;28;20207;-68
2024/01/25 10:06:47;;;;;;;3.50;1.83;;;;;;;10.51;100.00;97626.34;4975144;28;20213;-68
2024/01/25 10:09:14;;;;;;;6.77;1.60;;;;;;;10.35;100.00;97626.13;4973816;28;20219;-68
2024/01/25 10:11:40;;;;;;;7.17;1.70;;;;;;;10.23;100.00;97619.34;4977700;28;20208;-68
2024/01/25 10:14:08;;;;;;;3.80;1.40;;;;;;;10.01;100.00;97613.56;4973658;28;20199;-68
2024/01/25 10:16:35;;;;;;;10.43;2.93;;;;;;;10.19;100.00;97612.69;4975811;28;20302;-68
2024/01/25 10:19:02;;;;;;;9.43;1.90;;;;;;;10.23;100.00;97614.06;4973330;28;20234;-68
2024/01/25 10:21:29;;;;;;;6.10;1.93;;;;;;;10.45;100.00;97611.09;4976260;28;20207;-68
2024/01/25 10:23:58;;;;;;;9.27;2.37;;;;;;;10.83;100.00;97609.16;4976458;28;20208;-68
2024/01/25 10:26:28;;;;;;;12.40;1.80;;;;;;;10.96;100.00;97605.22;4974697;28;20564;-68
2024/01/25 10:28:54;;;;;;;12.40;1.80;;;;;;;10.65;100.00;97604.81;4975230;28;20227;-68
2024/01/25 10:31:24;;;;;;;5.37;1.53;;;;;;;10.92;100.00;97596.91;4974060;28;20210;-68
2024/01/25 10:33:53;;;;;;;3.57;2.07;;;;;;;11.19;100.00;97595.13;4976568;28;20696;-68
2024/01/25 10:36:21;;;;;;;17.33;2.73;;;;;;;10.95;100.00;97586.91;4974663;28;20203;-68
2024/01/25 10:38:49;;;;;;;7.93;1.93;;;;;;;10.91;100.00;97597.88;4976017;28;20231;-68
2024/01/25 10:41:17;;;;;;;3.80;1.20;;;;;;;11.10;100.00;97580.16;4975324;28;20226;-68
2024/01/25 10:43:44;;;;;;;8.07;1.50;;;;;;;10.95;100.00;97579.81;4977145;28;21034;-68
2024/01/25 10:46:12;;;;;;;3.50;1.20;;;;;;;10.88;98.81;97579.72;4974313;28;20214;-68
2024/01/25 10:48:39;;;;;;;7.03;1.03;;;;;;;11.12;97.76;97576.38;4973802;28;20647;-68
2024/01/25 10:51:06;;;;;;;9.80;2.50;;;;;;;10.76;100.00;97576.44;4974497;28;20218;-68
2024/01/25 10:53:34;;;;;;;12.97;3.03;;;;;;;10.86;99.87;97561.41;4974953;28;20219;-68
2024/01/25 10:56:02;;;;;;;2.93;1.50;;;;;;;10.80;100.00;97561.19;4975765;28;20208;-68
2024/01/25 10:58:33;;;;;;;4.77;1.13;;;;;;;10.88;100.00;97554.16;4974039;28;20245;-68
2024/01/25 11:01:01;;;;;;;5.60;1.50;;;;;;;10.71;100.00;97556.78;4978926;28;20199;-68
2024/01/25 11:03:28;;;;;;;11.90;1.63;;;;;;;10.57;100.00;97546.72;4974315;28;20204;-68
2024/01/25 11:05:56;;;;;;;8.47;2.20;;;;;;;10.89;100.00;97550.56;4977288;28;20210;-68
2024/01/25 11:08:22;;;;;;;2.30;0.90;;;;;;;10.51;100.00;97548.13;4973009;28;20223;-68
2024/01/25 11:10:53;;;;;;;1.80;1.30;;;;;;;10.63;100.00;97549.59;4976363;28;20690;-68
2024/01/25 11:13:27;;;;;;;8.07;1.23;;;;;;;10.81;100.00;97547.03;4974312;28;20209;-68
2024/01/25 11:15:54;;;;;;;6.87;1.77;;;;;;;10.52;100.00;97547.13;4977104;28;20761;-68
2024/01/25 11:18:21;;;;;;;12.40;1.50;;;;;;;10.66;100.00;97548.47;4973539;28;20231;-68
2024/01/25 11:20:48;;;;;;;3.03;1.10;;;;;;;10.85;100.00;97541.28;4976098;28;20576;-68
2024/01/25 11:23:17;;;;;;;4.10;2.37;;;;;;;10.86;100.00;97537.69;4976432;28;20209;-68
2024/01/25 11:25:46;;;;;;;7.30;1.80;;;;;;;10.98;100.00;97534.69;4975220;28;20673;-68
2024/01/25 11:28:15;;;;;;;3.47;1.43;;;;;;;10.88;100.00;97522.53;4977319;28;21141;-68